createdAt,value
2023-02-08T00:00:38.726Z,-0.53
2023-02-08T00:02:40.901Z,-0.56
2023-02-08T00:04:42.960Z,-0.55
2023-02-08T00:06:44.589Z,-0.55
2023-02-08T00:08:46.658Z,-0.56
2023-02-08T00:10:49.193Z,-0.56
2023-02-08T00:12:52.145Z,-0.56
2023-02-08T00:14:53.819Z,-0.56
2023-02-08T00:16:55.379Z,-0.57
2023-02-08T00:18:57.016Z,-0.59
2023-02-08T00:20:59.017Z,-0.58
2023-02-08T00:23:00.671Z,-0.58
2023-02-08T00:25:03.442Z,-0.58
2023-02-08T00:27:04.950Z,-0.58
2023-02-08T00:29:07.829Z,-0.58
2023-02-08T00:31:09.878Z,-0.59
2023-02-08T00:33:12.006Z,-0.59
2023-02-08T00:35:13.650Z,-0.61
2023-02-08T00:37:15.293Z,-0.61
2023-02-08T00:39:17.361Z,-0.62
2023-02-08T00:41:19.189Z,-0.62
2023-02-08T00:43:22.645Z,-0.62
2023-02-08T00:45:25.824Z,-0.63
2023-02-08T00:47:27.417Z,-0.65
2023-02-08T00:49:28.981Z,-0.64
2023-02-08T00:51:31.007Z,-0.65
2023-02-08T00:53:36.390Z,-0.65
2023-02-08T00:55:38.242Z,-0.67
2023-02-08T00:57:39.774Z,-0.68
2023-02-08T00:59:42.327Z,-0.68
2023-02-08T01:01:46.041Z,-0.68
2023-02-08T01:03:47.942Z,-0.69
2023-02-08T01:05:51.164Z,-0.71
2023-02-08T01:07:52.759Z,-0.72
2023-02-08T01:09:54.789Z,-0.72
2023-02-08T01:11:56.417Z,-0.74
2023-02-08T01:13:58.246Z,-0.75
2023-02-08T01:16:07.056Z,-0.76
2023-02-08T01:18:10.538Z,-0.78
2023-02-08T01:20:12.298Z,-0.80
2023-02-08T01:22:15.606Z,-0.80
2023-02-08T01:24:18.129Z,-0.81
2023-02-08T01:26:21.708Z,-0.83
2023-02-08T01:28:23.308Z,-0.84
2023-02-08T01:30:25.249Z,-0.84
2023-02-08T01:32:27.562Z,-0.85
2023-02-08T01:34:30.765Z,-0.87
2023-02-08T01:36:33.606Z,-0.90
2023-02-08T01:38:36.677Z,-0.91
2023-02-08T01:40:38.443Z,-0.94
2023-02-08T01:42:40.649Z,-0.94
2023-02-08T01:45:27.889Z,-0.95
2023-02-08T01:47:30.517Z,-1.00
2023-02-08T01:49:37.233Z,-1.01
2023-02-08T01:51:43.337Z,-1.02
2023-02-08T01:53:46.518Z,-1.07
2023-02-08T01:55:52.825Z,-1.07
2023-02-08T01:57:58.426Z,-1.08
2023-02-08T02:00:04.394Z,-1.10
2023-02-08T02:02:10.073Z,-1.12
2023-02-08T02:04:12.303Z,-1.14
2023-02-08T02:06:21.417Z,-1.15
2023-02-08T02:08:23.013Z,-1.16
2023-02-08T02:10:28.272Z,-1.16
2023-02-08T02:12:31.684Z,-1.18
2023-02-08T02:14:33.930Z,-1.17
2023-02-08T02:16:35.752Z,-1.20
2023-02-08T02:18:37.851Z,-1.21
2023-02-08T02:20:53.761Z,-1.20
2023-02-08T02:23:28.771Z,-1.20
2023-02-08T02:25:57.077Z,-1.20
2023-02-08T02:28:36.337Z,-1.21
2023-02-08T02:31:16.933Z,-1.20
2023-02-08T02:33:48.995Z,-1.22
2023-02-08T02:35:57.852Z,-1.25
2023-02-08T02:38:09.845Z,-1.25
2023-02-08T02:40:20.876Z,-1.25
2023-02-08T02:42:31.652Z,-1.27
2023-02-08T02:44:40.912Z,-1.27
2023-02-08T02:46:50.363Z,-1.27
2023-02-08T02:49:01.554Z,-1.26
2023-02-08T02:51:08.989Z,-1.27
2023-02-08T02:53:18.038Z,-1.28
2023-02-08T02:55:24.992Z,-1.28
2023-02-08T02:57:31.369Z,-1.27
2023-02-08T02:59:34.716Z,-1.28
2023-02-08T03:01:36.820Z,-1.29
2023-02-08T03:03:38.461Z,-1.28
2023-02-08T03:05:41.743Z,-1.28
2023-02-08T03:08:05.786Z,-1.26
2023-02-08T03:10:22.827Z,-1.26
2023-02-08T03:12:40.020Z,-1.25
2023-02-08T03:14:55.729Z,-1.26
2023-02-08T03:17:21.650Z,-1.27
2023-02-08T03:19:31.992Z,-1.28
2023-02-08T03:21:42.362Z,-1.29
2023-02-08T03:23:54.182Z,-1.29
2023-02-08T03:26:07.596Z,-1.30
2023-02-08T03:28:18.788Z,-1.31
2023-02-08T03:30:28.503Z,-1.32
2023-02-08T03:32:39.066Z,-1.32
2023-02-08T03:34:49.769Z,-1.34
2023-02-08T03:36:56.692Z,-1.36
2023-02-08T03:39:01.598Z,-1.37
2023-02-08T03:41:07.061Z,-1.39
2023-02-08T03:43:15.286Z,-1.41
2023-02-08T03:45:21.793Z,-1.42
2023-02-08T03:47:26.658Z,-1.44
2023-02-08T03:49:33.839Z,-1.44
2023-02-08T03:51:37.493Z,-1.44
2023-02-08T03:53:42.658Z,-1.46
2023-02-08T03:55:47.597Z,-1.47
2023-02-08T03:57:55.002Z,-1.48
2023-02-08T04:00:00.197Z,-1.48
2023-02-08T04:02:07.198Z,-1.49
2023-02-08T04:04:09.804Z,-1.50
2023-02-08T04:06:11.840Z,-1.51
2023-02-08T04:08:13.984Z,-1.50
2023-02-08T04:10:17.182Z,-1.51
2023-02-08T04:12:18.833Z,-1.52
2023-02-08T04:14:20.480Z,-1.53
2023-02-08T04:16:22.090Z,-1.53
2023-02-08T04:18:23.944Z,-1.53
2023-02-08T04:20:25.563Z,-1.53
2023-02-08T04:22:27.803Z,-1.53
2023-02-08T04:24:29.703Z,-1.53
2023-02-08T04:26:32.927Z,-1.54
2023-02-08T04:28:35.268Z,-1.54
2023-02-08T04:30:37.351Z,-1.54
2023-02-08T04:32:40.433Z,-1.54
2023-02-08T04:34:44.174Z,-1.56
2023-02-08T04:36:45.732Z,-1.57
2023-02-08T04:38:47.292Z,-1.57
2023-02-08T04:40:49.191Z,-1.57
2023-02-08T04:42:52.097Z,-1.59
2023-02-08T04:44:53.967Z,-1.59
2023-02-08T04:46:56.020Z,-1.60
2023-02-08T04:48:59.011Z,-1.61
2023-02-08T04:51:00.775Z,-1.62
2023-02-08T04:53:02.566Z,-1.64
2023-02-08T04:55:04.652Z,-1.66
2023-02-08T04:57:06.178Z,-1.68
2023-02-08T04:59:09.315Z,-1.69
2023-02-08T05:01:10.944Z,-1.70
2023-02-08T05:03:13.141Z,-1.72
2023-02-08T05:05:14.957Z,-1.73
2023-02-08T05:07:16.540Z,-1.74
2023-02-08T05:09:18.171Z,-1.75
2023-02-08T05:11:20.980Z,-1.77
2023-02-08T05:13:22.608Z,-1.75
2023-02-08T05:15:25.593Z,-1.76
2023-02-08T05:17:27.200Z,-1.78
2023-02-08T05:19:29.313Z,-1.78
2023-02-08T05:21:31.150Z,-1.77
2023-02-08T05:23:32.916Z,-1.78
2023-02-08T05:25:34.756Z,-1.80
2023-02-08T05:27:36.741Z,-1.80
2023-02-08T05:29:38.572Z,-1.83
2023-02-08T05:31:42.178Z,-1.84
2023-02-08T05:33:43.838Z,-1.85
2023-02-08T05:35:45.996Z,-1.86
2023-02-08T05:37:49.097Z,-1.87
2023-02-08T05:39:50.639Z,-1.87
2023-02-08T05:41:52.490Z,-1.87
2023-02-08T05:43:54.120Z,-1.87
2023-02-08T05:45:55.702Z,-1.88
2023-02-08T05:47:58.997Z,-1.88
2023-02-08T05:50:00.815Z,-1.88
2023-02-08T05:52:02.346Z,-1.89
2023-02-08T05:54:04.377Z,-1.88
2023-02-08T05:56:06.648Z,-1.89
2023-02-08T05:58:08.378Z,-1.90
2023-02-08T06:00:11.021Z,-1.92
2023-02-08T06:02:12.876Z,-1.92
2023-02-08T06:04:16.245Z,-1.92
2023-02-08T06:06:18.273Z,-1.92
2023-02-08T06:08:20.228Z,-1.93
2023-02-08T06:10:21.991Z,-1.95
2023-02-08T06:12:23.945Z,-1.93
2023-02-08T06:14:27.069Z,-1.96
2023-02-08T06:16:28.699Z,-1.95
2023-02-08T06:18:30.298Z,-1.97
2023-02-08T06:20:34.946Z,-1.97
2023-02-08T06:22:36.997Z,-1.97
2023-02-08T06:24:38.563Z,-1.97
2023-02-08T06:26:40.496Z,-1.99
2023-02-08T06:28:42.171Z,-1.99
2023-02-08T06:30:44.624Z,-1.99
2023-02-08T06:32:46.977Z,-1.98
2023-02-08T06:34:48.640Z,-1.99
2023-02-08T06:36:51.610Z,-1.99
2023-02-08T06:38:53.284Z,-1.98
2023-02-08T06:40:55.100Z,-1.97
2023-02-08T06:42:57.153Z,-1.97
2023-02-08T06:44:58.770Z,-1.97
2023-02-08T06:47:00.830Z,-1.97
2023-02-08T06:49:02.520Z,-1.95
2023-02-08T06:51:04.403Z,-1.95
2023-02-08T06:53:07.828Z,-1.94
2023-02-08T06:55:09.585Z,-1.93
2023-02-08T06:57:11.793Z,-1.92
2023-02-08T06:59:13.654Z,-1.90
2023-02-08T07:01:15.602Z,-1.89
2023-02-08T07:03:18.940Z,-1.88
2023-02-08T07:05:20.774Z,-1.87
2023-02-08T07:07:22.612Z,-1.86
2023-02-08T07:09:25.798Z,-1.85
2023-02-08T07:11:27.729Z,-1.84
2023-02-08T07:13:29.313Z,-1.82
2023-02-08T07:15:30.951Z,-1.82
2023-02-08T07:17:32.620Z,-1.80
2023-02-08T07:19:34.292Z,-1.79
2023-02-08T07:21:36.105Z,-1.77
2023-02-08T07:23:38.160Z,-1.75
2023-02-08T07:25:41.257Z,-1.74
2023-02-08T07:27:44.449Z,-1.72
2023-02-08T07:29:46.762Z,-1.71
2023-02-08T07:31:48.524Z,-1.69
2023-02-08T07:33:50.527Z,-1.68
2023-02-08T07:35:52.495Z,-1.67
2023-02-08T07:37:54.473Z,-1.66
2023-02-08T07:39:57.583Z,-1.65
2023-02-08T07:42:00.690Z,-1.63
2023-02-08T07:44:02.350Z,-1.62
2023-02-08T07:46:08.490Z,-1.60
2023-02-08T07:48:10.109Z,-1.58
2023-02-08T07:50:11.740Z,-1.57
2023-02-08T07:52:13.596Z,-1.56
2023-02-08T07:54:15.981Z,-1.53
2023-02-08T07:56:18.178Z,-1.52
2023-02-08T07:58:21.408Z,-1.49
2023-02-08T08:00:23.468Z,-1.47
2023-02-08T08:02:25.133Z,-1.43
2023-02-08T08:04:26.937Z,-1.42
2023-02-08T08:06:28.885Z,-1.40
2023-02-08T08:08:30.771Z,-1.37
2023-02-08T08:10:32.332Z,-1.33
2023-02-08T08:12:33.970Z,-1.31
2023-02-08T08:14:37.051Z,-1.27
2023-02-08T08:16:38.862Z,-1.26
2023-02-08T08:18:40.968Z,-1.23
2023-02-08T08:20:42.688Z,-1.20
2023-02-08T08:22:44.569Z,-1.15
2023-02-08T08:24:46.677Z,-1.12
2023-02-08T08:26:48.174Z,-1.08
2023-02-08T08:28:50.235Z,-1.03
2023-02-08T08:30:53.380Z,-0.96
2023-02-08T08:32:55.132Z,-0.91
2023-02-08T08:34:56.960Z,-0.83
2023-02-08T08:37:01.524Z,-0.75
2023-02-08T08:39:03.729Z,-0.67
2023-02-08T08:41:08.626Z,-0.58
2023-02-08T08:43:10.430Z,-0.43
2023-02-08T08:45:11.973Z,-0.22
2023-02-08T08:47:15.423Z,-0.02
2023-02-08T08:49:17.222Z,0.22
2023-02-08T08:51:19.386Z,0.44
2023-02-08T08:53:21.055Z,0.64
2023-02-08T08:55:22.854Z,0.82
2023-02-08T08:57:24.807Z,0.96
2023-02-08T08:59:26.405Z,1.20
2023-02-08T09:01:28.251Z,1.42
2023-02-08T09:03:31.479Z,1.60
2023-02-08T09:05:33.868Z,1.73
2023-02-08T09:07:35.490Z,1.85
2023-02-08T09:09:38.569Z,1.95
2023-02-08T09:11:40.163Z,2.06
2023-02-08T09:13:42.743Z,2.15
2023-02-08T09:15:44.346Z,2.26
2023-02-08T09:17:45.975Z,2.35
2023-02-08T09:19:48.966Z,2.44
2023-02-08T09:21:50.672Z,2.50
2023-02-08T09:23:52.351Z,2.59
2023-02-08T09:25:54.458Z,2.66
2023-02-08T09:27:56.030Z,2.73
2023-02-08T09:29:57.825Z,2.82
2023-02-08T09:32:00.157Z,2.91
2023-02-08T09:34:02.226Z,3.01
2023-02-08T09:36:06.084Z,3.10
2023-02-08T09:38:07.733Z,3.19
2023-02-08T09:40:21.357Z,3.31
2023-02-08T09:42:33.201Z,3.42
2023-02-08T09:44:48.149Z,3.53
2023-02-08T09:46:58.276Z,3.65
2023-02-08T09:49:05.299Z,3.76
2023-02-08T09:51:14.988Z,3.86
2023-02-08T09:53:21.349Z,3.98
2023-02-08T09:55:32.580Z,4.09
2023-02-08T09:57:37.147Z,4.17
2023-02-08T09:59:46.976Z,4.30
2023-02-08T10:01:51.169Z,4.41
2023-02-08T10:03:56.540Z,4.54
2023-02-08T10:05:58.771Z,4.63
2023-02-08T10:08:02.105Z,4.78
2023-02-08T10:10:06.690Z,4.89
2023-02-08T10:12:17.561Z,5.05
2023-02-08T10:14:43.587Z,5.20
2023-02-08T10:16:59.889Z,5.32
2023-02-08T10:19:12.036Z,5.43
2023-02-08T10:21:28.868Z,5.55
2023-02-08T10:24:14.147Z,5.72
2023-02-08T10:26:29.391Z,5.82
2023-02-08T10:28:54.769Z,5.94
2023-02-08T10:31:02.956Z,6.05
2023-02-08T10:33:13.104Z,6.15
2023-02-08T10:35:26.450Z,6.25
2023-02-08T10:37:32.057Z,6.34
2023-02-08T10:39:36.983Z,6.45
2023-02-08T10:41:38.504Z,6.52
2023-02-08T10:43:45.052Z,6.61
2023-02-08T10:45:53.898Z,6.67
2023-02-08T10:47:58.523Z,6.75
2023-02-08T10:50:03.001Z,6.81
2023-02-08T10:52:05.150Z,6.89
2023-02-08T10:54:06.785Z,6.95
2023-02-08T10:56:33.333Z,7.04
2023-02-08T10:58:36.855Z,7.06
2023-02-08T11:00:39.249Z,7.13
2023-02-08T11:02:42.551Z,7.18
2023-02-08T11:04:58.155Z,7.27
2023-02-08T11:07:20.633Z,7.33
2023-02-08T11:09:26.359Z,7.37
2023-02-08T11:11:35.360Z,7.42
2023-02-08T11:13:39.593Z,7.46
2023-02-08T11:15:46.564Z,7.49
2023-02-08T11:17:54.733Z,7.57
2023-02-08T11:20:01.409Z,7.59
2023-02-08T11:22:04.579Z,7.60
2023-02-08T11:24:27.781Z,7.70
2023-02-08T11:26:36.371Z,7.74
2023-02-08T11:28:37.999Z,7.78
2023-02-08T11:30:39.820Z,7.82
2023-02-08T11:32:42.435Z,7.86
2023-02-08T11:34:44.106Z,7.90
2023-02-08T11:36:47.315Z,7.91
2023-02-08T11:38:48.850Z,7.94
2023-02-08T11:40:50.900Z,7.97
2023-02-08T11:42:54.428Z,8.00
2023-02-08T11:44:58.032Z,8.05
2023-02-08T11:47:02.767Z,8.07
2023-02-08T11:49:04.676Z,8.08
2023-02-08T11:51:07.199Z,8.10
2023-02-08T11:53:20.722Z,8.12
2023-02-08T11:55:24.792Z,8.10
2023-02-08T11:57:26.947Z,8.10
2023-02-08T11:59:31.060Z,8.13
2023-02-08T12:01:35.010Z,8.12
2023-02-08T12:03:39.191Z,8.14
2023-02-08T12:05:49.091Z,8.15
2023-02-08T12:08:04.589Z,8.17
2023-02-08T12:10:26.807Z,8.19
2023-02-08T12:12:38.597Z,8.19
2023-02-08T12:14:52.530Z,8.22
2023-02-08T12:17:12.688Z,8.21
2023-02-08T12:19:43.282Z,8.15
2023-02-08T12:21:47.150Z,8.10
2023-02-08T12:23:54.228Z,8.06
2023-02-08T12:26:07.148Z,8.00
2023-02-08T12:28:16.711Z,7.95
2023-02-08T12:30:30.126Z,7.89
2023-02-08T12:32:52.885Z,7.88
2023-02-08T12:35:13.409Z,7.88
2023-02-08T12:37:26.804Z,7.86
2023-02-08T12:39:43.345Z,7.83
2023-02-08T12:41:53.071Z,7.79
2023-02-08T12:44:05.222Z,7.74
2023-02-08T12:46:25.115Z,7.71
2023-02-08T12:48:41.302Z,7.66
2023-02-08T12:50:52.750Z,7.58
2023-02-08T12:53:00.858Z,7.57
2023-02-08T12:55:13.673Z,7.54
2023-02-08T12:57:19.786Z,7.51
2023-02-08T12:59:27.824Z,7.52
2023-02-08T13:01:34.571Z,7.52
2023-02-08T13:03:43.209Z,7.51
2023-02-08T13:06:01.786Z,7.50
2023-02-08T13:08:17.134Z,7.50
2023-02-08T13:10:24.485Z,7.47
2023-02-08T13:12:30.662Z,7.46
2023-02-08T13:14:36.216Z,7.42
2023-02-08T13:16:43.828Z,7.42
2023-02-08T13:18:51.927Z,7.40
2023-02-08T13:20:58.491Z,7.39
2023-02-08T13:23:04.237Z,7.35
2023-02-08T13:25:16.550Z,7.35
2023-02-08T13:27:21.008Z,7.33
2023-02-08T13:29:28.100Z,7.32
2023-02-08T13:31:33.992Z,7.28
2023-02-08T13:33:59.323Z,7.26
2023-02-08T13:36:04.323Z,7.24
2023-02-08T13:38:17.091Z,7.21
2023-02-08T13:40:21.490Z,7.19
2023-02-08T13:42:29.227Z,7.16
2023-02-08T13:44:34.270Z,7.13
2023-02-08T13:46:38.073Z,7.09
2023-02-08T13:48:58.703Z,7.10
2023-02-08T13:51:00.267Z,7.05
2023-02-08T13:53:02.397Z,7.01
2023-02-08T13:55:44.126Z,6.99
2023-02-08T13:57:53.587Z,6.95
2023-02-08T14:00:21.367Z,6.92
2023-02-08T14:02:26.534Z,6.88
2023-02-08T14:04:43.884Z,6.85
2023-02-08T14:06:49.724Z,6.81
2023-02-08T14:08:58.449Z,6.79
2023-02-08T14:11:14.177Z,6.74
2023-02-08T14:13:27.220Z,6.69
2023-02-08T14:15:37.506Z,6.65
2023-02-08T14:17:43.482Z,6.62
2023-02-08T14:19:57.832Z,6.59
2023-02-08T14:22:02.819Z,6.52
2023-02-08T14:24:06.970Z,6.47
2023-02-08T14:26:18.764Z,6.43
2023-02-08T14:28:27.342Z,6.41
2023-02-08T14:30:32.150Z,6.38
2023-02-08T14:32:37.353Z,6.34
2023-02-08T14:34:40.823Z,6.32
2023-02-08T14:36:43.979Z,6.31
2023-02-08T14:39:09.042Z,6.31
2023-02-08T14:41:10.675Z,6.27
2023-02-08T14:43:31.780Z,6.27
2023-02-08T14:45:36.154Z,6.25
2023-02-08T14:48:22.444Z,6.25
2023-02-08T14:50:31.149Z,6.20
2023-02-08T14:52:35.510Z,6.15
2023-02-08T14:54:46.610Z,6.16
2023-02-08T14:56:56.158Z,6.14
2023-02-08T14:59:01.923Z,6.10
2023-02-08T15:01:08.161Z,6.09
2023-02-08T15:03:16.979Z,6.06
2023-02-08T15:05:24.190Z,6.02
2023-02-08T15:07:33.579Z,5.98
2023-02-08T15:09:40.400Z,5.94
2023-02-08T15:11:42.811Z,5.90
2023-02-08T15:13:49.389Z,5.85
2023-02-08T15:15:54.021Z,5.80
2023-02-08T15:17:57.007Z,5.74
2023-02-08T15:19:59.682Z,5.68
2023-02-08T15:22:17.286Z,5.63
2023-02-08T15:24:20.362Z,5.54
2023-02-08T15:26:24.978Z,5.48
2023-02-08T15:28:29.288Z,5.40
2023-02-08T15:30:39.931Z,5.33
2023-02-08T15:32:41.501Z,5.22
2023-02-08T15:34:46.739Z,5.13
2023-02-08T15:36:52.823Z,5.05
2023-02-08T15:38:56.315Z,4.96
2023-02-08T15:41:04.161Z,4.87
2023-02-08T15:43:13.356Z,4.79
2023-02-08T15:45:27.268Z,4.72
2023-02-08T15:47:32.709Z,4.64
2023-02-08T15:49:37.209Z,4.58
2023-02-08T15:51:39.185Z,4.52
2023-02-08T15:53:43.506Z,4.45
2023-02-08T15:55:49.184Z,4.38
2023-02-08T15:57:57.116Z,4.31
2023-02-08T16:00:01.180Z,4.24
2023-02-08T16:02:19.196Z,4.18
2023-02-08T16:04:21.946Z,4.13
2023-02-08T16:06:26.047Z,4.06
2023-02-08T16:08:31.182Z,4.00
2023-02-08T16:10:38.690Z,3.92
2023-02-08T16:12:40.370Z,3.86
2023-02-08T16:14:52.186Z,3.81
2023-02-08T16:16:58.055Z,3.74
2023-02-08T16:19:01.152Z,3.67
2023-02-08T16:21:04.926Z,3.59
2023-02-08T16:23:25.404Z,3.54
2023-02-08T16:25:44.439Z,3.47
2023-02-08T16:27:48.536Z,3.38
2023-02-08T16:29:50.391Z,3.29
2023-02-08T16:32:00.355Z,3.23
2023-02-08T16:34:04.883Z,3.17
2023-02-08T16:36:06.861Z,3.11
2023-02-08T16:38:10.030Z,3.08
2023-02-08T16:40:44.509Z,3.03
2023-02-08T16:42:46.456Z,2.94
2023-02-08T16:45:17.066Z,2.91
2023-02-08T16:47:27.347Z,2.86
2023-02-08T16:49:29.117Z,2.78
2023-02-08T16:51:32.904Z,2.73
2023-02-08T16:53:42.015Z,2.67
2023-02-08T16:55:44.901Z,2.61
2023-02-08T16:57:49.031Z,2.56
2023-02-08T16:59:52.403Z,2.50
2023-02-08T17:01:54.093Z,2.47
2023-02-08T17:03:57.396Z,2.43
2023-02-08T17:06:00.453Z,2.40
2023-02-08T17:08:04.457Z,2.35
2023-02-08T17:10:08.441Z,2.26
2023-02-08T17:12:21.552Z,2.21
2023-02-08T17:14:24.289Z,2.17
2023-02-08T17:16:27.858Z,2.13
2023-02-08T17:18:29.691Z,2.10
2023-02-08T17:20:34.837Z,2.07
2023-02-08T17:22:36.366Z,2.03
2023-02-08T17:24:39.868Z,2.01
2023-02-08T17:26:43.917Z,1.96
2023-02-08T17:28:46.484Z,1.92
2023-02-08T17:30:49.455Z,1.88
2023-02-08T17:32:51.555Z,1.86
2023-02-08T17:34:53.134Z,1.83
2023-02-08T17:36:56.169Z,1.80
2023-02-08T17:38:58.662Z,1.76
2023-02-08T17:41:03.244Z,1.72
2023-02-08T17:43:06.034Z,1.70
2023-02-08T17:45:09.054Z,1.66
2023-02-08T17:47:10.934Z,1.63
2023-02-08T17:49:12.747Z,1.60
2023-02-08T17:51:16.744Z,1.57
2023-02-08T17:53:19.999Z,1.53
2023-02-08T17:55:22.070Z,1.51
2023-02-08T17:57:23.621Z,1.46
2023-02-08T17:59:26.275Z,1.42
2023-02-08T18:01:28.358Z,1.39
2023-02-08T18:03:29.977Z,1.37
2023-02-08T18:05:31.866Z,1.32
2023-02-08T18:07:33.756Z,1.30
2023-02-08T18:09:37.525Z,1.27
2023-02-08T18:11:39.136Z,1.24
2023-02-08T18:13:41.156Z,1.21
2023-02-08T18:15:43.530Z,1.18
2023-02-08T18:17:46.484Z,1.16
2023-02-08T18:19:48.301Z,1.12
2023-02-08T18:21:52.125Z,1.11
2023-02-08T18:23:54.271Z,1.08
2023-02-08T18:26:05.882Z,1.07
2023-02-08T18:28:07.527Z,1.03
2023-02-08T18:30:11.252Z,1.01
2023-02-08T18:32:13.387Z,0.98
2023-02-08T18:34:14.988Z,0.96
2023-02-08T18:36:16.724Z,0.93
2023-02-08T18:38:18.424Z,0.90
2023-02-08T18:40:20.174Z,0.89
2023-02-08T18:42:23.357Z,0.86
2023-02-08T18:44:24.960Z,0.84
2023-02-08T18:46:28.486Z,0.83
2023-02-08T18:48:30.310Z,0.81
2023-02-08T18:50:31.930Z,0.78
2023-02-08T18:52:34.075Z,0.73
2023-02-08T18:54:37.974Z,0.74
2023-02-08T18:56:41.021Z,0.70
2023-02-08T18:58:44.215Z,0.68
2023-02-08T19:00:45.793Z,0.66
2023-02-08T19:02:47.717Z,0.65
2023-02-08T19:04:49.613Z,0.62
2023-02-08T19:06:51.460Z,0.59
2023-02-08T19:08:55.597Z,0.56
2023-02-08T19:10:57.653Z,0.56
2023-02-08T19:12:59.508Z,0.52
2023-02-08T19:15:02.416Z,0.51
2023-02-08T19:17:04.304Z,0.48
2023-02-08T19:19:07.029Z,0.46
2023-02-08T19:21:11.547Z,0.43
2023-02-08T19:23:13.069Z,0.43
2023-02-08T19:25:14.798Z,0.41
2023-02-08T19:27:16.454Z,0.39
2023-02-08T19:29:19.049Z,0.37
2023-02-08T19:31:23.242Z,0.36
2023-02-08T19:33:25.320Z,0.34
2023-02-08T19:35:27.112Z,0.33
2023-02-08T19:37:28.759Z,0.33
2023-02-08T19:39:30.300Z,0.29
2023-02-08T19:41:34.757Z,0.27
2023-02-08T19:43:36.882Z,0.26
2023-02-08T19:45:38.488Z,0.25
2023-02-08T19:47:50.985Z,0.22
2023-02-08T19:49:56.769Z,0.21
2023-02-08T19:51:58.945Z,0.19
2023-02-08T19:54:01.957Z,0.18
2023-02-08T19:56:06.694Z,0.17
2023-02-08T19:58:08.549Z,0.14
2023-02-08T20:00:23.011Z,0.13
2023-02-08T20:02:25.962Z,0.11
2023-02-08T20:04:28.885Z,0.09
2023-02-08T20:06:33.115Z,0.08
2023-02-08T20:08:34.648Z,0.06
2023-02-08T20:10:37.689Z,0.06
2023-02-08T20:12:39.613Z,0.03
2023-02-08T20:14:41.194Z,0.03
2023-02-08T20:16:42.788Z,0.00
2023-02-08T20:18:44.874Z,0.00
2023-02-08T20:20:59.220Z,0.00
2023-02-08T20:23:01.363Z,-0.01
2023-02-08T20:25:03.706Z,-0.03
2023-02-08T20:27:05.409Z,-0.04
2023-02-08T20:29:08.744Z,-0.06
2023-02-08T20:31:12.824Z,-0.06
2023-02-08T20:33:15.768Z,-0.07
2023-02-08T20:35:18.044Z,-0.09
2023-02-08T20:37:20.954Z,-0.11
2023-02-08T20:39:22.731Z,-0.10
2023-02-08T20:41:27.054Z,-0.11
2023-02-08T20:43:28.550Z,-0.12
2023-02-08T20:45:30.085Z,-0.14
2023-02-08T20:47:33.819Z,-0.15
2023-02-08T20:49:38.111Z,-0.16
2023-02-08T20:51:39.624Z,-0.18
2023-02-08T20:53:44.246Z,-0.17
2023-02-08T20:55:46.224Z,-0.19
2023-02-08T20:57:47.989Z,-0.19
2023-02-08T20:59:50.803Z,-0.19
2023-02-08T21:01:52.573Z,-0.20
2023-02-08T21:03:56.012Z,-0.23
2023-02-08T21:05:57.577Z,-0.24
2023-02-08T21:07:59.188Z,-0.24
2023-02-08T21:10:02.126Z,-0.25
2023-02-08T21:12:04.978Z,-0.26
2023-02-08T21:14:10.442Z,-0.25
2023-02-08T21:16:12.179Z,-0.28
2023-02-08T21:18:14.095Z,-0.29
2023-02-08T21:20:15.778Z,-0.30
2023-02-08T21:22:17.603Z,-0.30
2023-02-08T21:24:19.361Z,-0.34
2023-02-08T21:26:22.296Z,-0.34
2023-02-08T21:28:24.291Z,-0.34
2023-02-08T21:30:25.930Z,-0.34
2023-02-08T21:32:27.527Z,-0.34
2023-02-08T21:34:29.154Z,-0.36
2023-02-08T21:36:30.845Z,-0.36
2023-02-08T21:38:35.361Z,-0.36
2023-02-08T21:40:36.926Z,-0.36
2023-02-08T21:42:39.913Z,-0.37
2023-02-08T21:44:41.565Z,-0.39
2023-02-08T21:46:43.500Z,-0.37
2023-02-08T21:48:46.133Z,-0.39
2023-02-08T21:50:47.647Z,-0.39
2023-02-08T21:52:49.541Z,-0.43
2023-02-08T21:54:51.214Z,-0.43
2023-02-08T21:56:52.833Z,-0.42
2023-02-08T21:58:55.733Z,-0.43
2023-02-08T22:00:57.365Z,-0.44
2023-02-08T22:02:59.000Z,-0.44
2023-02-08T22:05:02.214Z,-0.46
2023-02-08T22:07:04.803Z,-0.47
2023-02-08T22:09:06.464Z,-0.47
2023-02-08T22:11:08.977Z,-0.48
2023-02-08T22:13:11.095Z,-0.49
2023-02-08T22:15:15.870Z,-0.50
2023-02-08T22:17:17.706Z,-0.53
2023-02-08T22:19:19.837Z,-0.53
2023-02-08T22:21:21.693Z,-0.53
2023-02-08T22:23:25.237Z,-0.55
2023-02-08T22:25:26.875Z,-0.56
2023-02-08T22:27:28.940Z,-0.58
2023-02-08T22:29:30.659Z,-0.58
2023-02-08T22:31:33.849Z,-0.60
2023-02-08T22:33:35.925Z,-0.61
2023-02-08T22:35:39.316Z,-0.63
2023-02-08T22:37:41.316Z,-0.63
2023-02-08T22:39:43.054Z,-0.63
2023-02-08T22:41:44.796Z,-0.66
2023-02-08T22:43:46.377Z,-0.67
2023-02-08T22:45:56.744Z,-0.67
2023-02-08T22:47:59.651Z,-0.69
2023-02-08T22:50:01.365Z,-0.70
2023-02-08T22:52:06.548Z,-0.71
2023-02-08T22:54:08.121Z,-0.74
2023-02-08T22:56:13.035Z,-0.73
2023-02-08T22:58:14.896Z,-0.76
2023-02-08T23:00:19.408Z,-0.75
2023-02-08T23:02:21.463Z,-0.76
2023-02-08T23:04:24.402Z,-0.77
2023-02-08T23:06:26.014Z,-0.78
2023-02-08T23:08:27.951Z,-0.80
2023-02-08T23:10:29.994Z,-0.78
2023-02-08T23:12:33.794Z,-0.79
2023-02-08T23:14:35.612Z,-0.81
2023-02-08T23:16:37.715Z,-0.82
2023-02-08T23:18:39.437Z,-0.83
2023-02-08T23:20:42.735Z,-0.84
2023-02-08T23:22:44.517Z,-0.84
2023-02-08T23:24:46.363Z,-0.84
2023-02-08T23:26:47.913Z,-0.84
2023-02-08T23:28:50.978Z,-0.85
2023-02-08T23:30:52.971Z,-0.86
2023-02-08T23:32:54.676Z,-0.87
2023-02-08T23:34:56.464Z,-0.88
2023-02-08T23:36:59.363Z,-0.88
2023-02-08T23:39:01.156Z,-0.89
2023-02-08T23:41:03.881Z,-0.89
2023-02-08T23:43:05.738Z,-0.91
2023-02-08T23:45:08.557Z,-0.93
2023-02-08T23:47:10.332Z,-0.93
2023-02-08T23:49:11.943Z,-0.93
2023-02-08T23:51:14.576Z,-0.93
2023-02-08T23:53:17.785Z,-0.94
2023-02-08T23:55:19.554Z,-0.94
2023-02-08T23:57:21.732Z,-0.95
2023-02-08T23:59:23.310Z,-0.96
